Time;durP1;ratioP1;P1;durP2;ratioP2;P2;SDS_P1;SDS_P2;PMS_P1;PMS_P2;Temp;Humidity;BMP_temperature;BMP_pressure;BME280_temperature;BME280_humidity;BME280_pressure;Samples;Min_cycle;Max_cycle;Signal;HPM_P1;HPM_P2
2022/06/03 00:01:55;;;;;;;6.75;3.63;;;10.30;99.90;;;;;;5032676;28;20049;-72
2022/06/03 00:04:26;;;;;;;8.10;3.55;;;10.40;99.90;;;;;;5030102;28;20124;-72
2022/06/03 00:07:08;;;;;;;6.28;3.63;;;10.40;99.90;;;;;;5032904;28;20131;-72
2022/06/03 00:09:36;;;;;;;7.63;3.85;;;10.40;99.90;;;;;;5048406;28;20045;-72
2022/06/03 00:12:28;;;;;;;7.28;3.72;;;10.30;99.90;;;;;;5032084;28;20049;-72
2022/06/03 00:15:31;;;;;;;8.95;4.00;;;10.30;99.90;;;;;;5049092;28;20128;-72
2022/06/03 00:18:21;;;;;;;7.20;4.00;;;10.30;99.90;;;;;;5031722;28;20132;-72
2022/06/03 00:21:02;;;;;;;6.75;3.58;;;10.20;99.90;;;;;;5016202;28;20045;-72
2022/06/03 00:24:05;;;;;;;6.80;3.88;;;10.10;99.90;;;;;;5030626;28;20391;-72
2022/06/03 00:26:42;;;;;;;8.10;3.97;;;10.10;99.90;;;;;;5032237;28;20044;-72
2022/06/03 00:29:08;;;;;;;7.60;3.83;;;10.10;99.90;;;;;;5031129;28;20295;-72
2022/06/03 00:31:40;;;;;;;6.82;3.72;;;10.20;99.90;;;;;;5015830;28;20124;-72
2022/06/03 00:34:24;;;;;;;6.82;3.70;;;10.20;99.90;;;;;;5015092;28;20557;-72
2022/06/03 00:37:31;;;;;;;7.20;3.90;;;10.20;99.90;;;;;;5032162;28;20099;-72
2022/06/03 00:40:29;;;;;;;7.45;3.97;;;10.10;99.90;;;;;;5042513;28;20386;-71
2022/06/03 00:43:07;;;;;;;6.78;4.00;;;9.90;99.90;;;;;;5014905;28;20041;-71
2022/06/03 00:46:05;;;;;;;8.75;4.30;;;9.90;99.90;;;;;;5032302;28;20033;-72
2022/06/03 00:48:37;;;;;;;9.43;3.83;;;9.90;99.90;;;;;;5033385;28;20053;-72
2022/06/03 00:51:29;;;;;;;8.77;4.57;;;9.80;99.90;;;;;;5032055;28;20033;-72
2022/06/03 00:54:23;;;;;;;8.40;3.88;;;9.70;99.90;;;;;;5030084;28;20033;-73
2022/06/03 00:57:13;;;;;;;9.10;4.20;;;9.80;99.90;;;;;;5041162;28;20045;-72
2022/06/03 00:59:57;;;;;;;7.63;3.92;;;9.80;99.90;;;;;;5013813;28;20057;-72
2022/06/03 01:02:34;;;;;;;8.32;4.95;;;9.80;99.90;;;;;;5015487;28;20067;-72
2022/06/03 01:05:36;;;;;;;10.27;4.57;;;9.70;99.90;;;;;;5027692;28;20490;-72
2022/06/03 01:08:20;;;;;;;6.75;4.28;;;9.70;99.90;;;;;;5031681;28;20068;-72
2022/06/03 01:10:54;;;;;;;9.43;4.85;;;9.70;99.90;;;;;;5014570;28;20033;-73
2022/06/03 01:13:29;;;;;;;11.07;4.95;;;9.70;99.90;;;;;;5031180;28;20052;-72
2022/06/03 01:15:54;;;;;;;9.80;4.25;;;9.60;99.90;;;;;;5031831;28;20050;-72
2022/06/03 01:18:36;;;;;;;11.13;5.07;;;9.60;99.90;;;;;;5031008;28;20050;-73
2022/06/03 01:21:37;;;;;;;7.90;5.37;;;9.60;99.90;;;;;;5031257;28;20549;-72
2022/06/03 01:24:21;;;;;;;8.80;4.65;;;9.60;99.90;;;;;;5035550;28;20049;-72
2022/06/03 01:26:47;;;;;;;8.65;5.03;;;9.60;99.90;;;;;;5035252;28;20057;-72
2022/06/03 01:29:38;;;;;;;8.98;5.38;;;9.70;99.90;;;;;;5017018;28;20061;-72
2022/06/03 01:32:30;;;;;;;9.40;5.72;;;9.60;99.90;;;;;;5034747;28;20045;-72
2022/06/03 01:35:15;;;;;;;8.82;4.90;;;9.50;99.90;;;;;;5018267;28;20038;-72
2022/06/03 01:37:43;;;;;;;9.55;5.20;;;9.50;99.90;;;;;;5035063;28;20464;-73
2022/06/03 01:40:34;;;;;;;8.35;5.47;;;9.50;99.90;;;;;;5034390;28;20108;-72
2022/06/03 01:43:05;;;;;;;8.85;5.20;;;9.50;99.90;;;;;;5035226;28;20057;-73
2022/06/03 01:46:12;;;;;;;8.50;4.63;;;9.50;99.90;;;;;;5034524;28;20038;-72
2022/06/03 01:48:56;;;;;;;9.82;4.97;;;9.40;99.90;;;;;;5034477;28;20038;-72
2022/06/03 01:51:46;;;;;;;8.00;4.63;;;9.40;99.90;;;;;;5034253;28;20033;-72
2022/06/03 01:54:24;;;;;;;7.85;4.93;;;9.40;99.90;;;;;;5035040;28;20084;-72
2022/06/03 01:56:58;;;;;;;8.23;4.80;;;9.50;99.90;;;;;;5018555;28;20042;-72
2022/06/03 01:59:46;;;;;;;7.22;4.05;;;9.50;99.90;;;;;;5017773;28;20041;-72
2022/06/03 02:02:27;;;;;;;8.65;4.72;;;9.40;99.90;;;;;;5033164;28;20505;-72
2022/06/03 02:05:34;;;;;;;9.90;5.40;;;9.40;99.90;;;;;;5032955;28;20045;-72
2022/06/03 02:07:59;;;;;;;8.13;5.03;;;9.30;99.90;;;;;;5032845;28;20505;-73
2022/06/03 02:11:22;;;;;;;8.40;4.85;;;9.30;99.90;;;;;;5016715;28;20104;-72
2022/06/03 02:14:15;;;;;;;10.20;5.70;;;9.30;99.90;;;;;;5004748;28;20076;-72
2022/06/03 02:17:19;;;;;;;9.10;5.50;;;9.40;99.90;;;;;;5014654;28;20099;-73
2022/06/03 02:20:22;;;;;;;8.85;5.20;;;9.40;99.90;;;;;;5031471;28;20107;-72
2022/06/03 02:22:50;;;;;;;9.88;5.72;;;9.40;99.90;;;;;;5014117;28;20053;-72
2022/06/03 02:25:39;;;;;;;8.18;5.22;;;9.30;99.90;;;;;;5014711;28;20482;-72
2022/06/03 02:28:29;;;;;;;8.15;5.40;;;9.30;99.90;;;;;;5016241;28;20049;-72
2022/06/03 02:31:17;;;;;;;8.82;5.47;;;9.30;99.90;;;;;;5049591;28;20076;-72
2022/06/03 02:34:16;;;;;;;9.82;5.95;;;9.30;99.90;;;;;;5033565;28;20045;-73
2022/06/03 02:37:00;;;;;;;10.27;5.80;;;9.30;99.90;;;;;;5017810;28;20123;-72
2022/06/03 02:40:12;;;;;;;8.13;5.40;;;9.30;99.90;;;;;;5033083;28;20061;-72
2022/06/03 02:42:56;;;;;;;12.07;6.05;;;9.30;99.90;;;;;;5013611;28;20068;-73
2022/06/03 02:45:43;;;;;;;9.30;5.07;;;9.40;99.90;;;;;;5050458;28;20132;-72
2022/06/03 02:48:32;;;;;;;8.15;5.18;;;9.40;99.90;;;;;;5033822;28;20052;-72
2022/06/03 02:51:00;;;;;;;9.20;6.10;;;9.40;99.90;;;;;;5021126;28;20136;-72
2022/06/03 02:54:08;;;;;;;9.40;5.55;;;9.30;99.90;;;;;;5032800;28;20144;-73
2022/06/03 02:56:39;;;;;;;10.25;5.93;;;9.20;99.90;;;;;;5033922;28;20045;-73
2022/06/03 02:59:16;;;;;;;10.13;5.53;;;9.20;99.90;;;;;;5049099;28;20576;-73
2022/06/03 03:02:06;;;;;;;9.82;5.55;;;9.10;99.90;;;;;;5033854;28;20104;-73
2022/06/03 03:04:38;;;;;;;8.35;5.10;;;9.10;99.90;;;;;;5033716;28;20041;-72
2022/06/03 03:07:37;;;;;;;9.00;5.22;;;9.10;99.90;;;;;;5033225;28;20397;-73
2022/06/03 03:10:45;;;;;;;7.53;4.72;;;9.10;99.90;;;;;;5033458;28;20046;-73
2022/06/03 03:13:14;;;;;;;10.05;5.30;;;9.00;99.90;;;;;;5016503;28;20040;-72
2022/06/03 03:16:12;;;;;;;8.32;5.28;;;9.00;99.90;;;;;;5013989;28;20132;-72
2022/06/03 03:18:44;;;;;;;9.77;5.88;;;8.90;99.90;;;;;;5017050;28;20041;-72
2022/06/03 03:21:49;;;;;;;8.05;5.65;;;8.90;99.90;;;;;;5032846;28;20041;-72
2022/06/03 03:24:26;;;;;;;9.15;4.88;;;8.90;99.90;;;;;;5036499;28;20042;-73
2022/06/03 03:27:04;;;;;;;10.52;5.97;;;8.90;99.90;;;;;;5046600;28;20486;-72
2022/06/03 03:30:01;;;;;;;9.95;5.40;;;8.90;99.90;;;;;;5049023;28;20042;-73
2022/06/03 03:33:01;;;;;;;8.82;5.63;;;8.90;99.90;;;;;;5017032;28;20064;-72
2022/06/03 03:35:52;;;;;;;10.18;5.70;;;8.80;99.90;;;;;;5033237;28;20095;-72
2022/06/03 03:38:52;;;;;;;8.68;5.63;;;8.90;99.90;;;;;;5015897;28;20038;-73
2022/06/03 03:41:30;;;;;;;8.52;5.45;;;8.90;99.90;;;;;;5031463;28;20057;-72
2022/06/03 03:44:26;;;;;;;9.48;5.78;;;9.00;99.90;;;;;;5037618;28;20073;-72
2022/06/03 03:47:43;;;;;;;11.90;5.55;;;9.00;99.90;;;;;;5049206;28;20120;-72
2022/06/03 03:50:11;;;;;;;11.00;6.30;;;9.20;99.90;;;;;;4976542;28;20058;-72
2022/06/03 03:52:54;;;;;;;12.00;6.63;;;9.10;99.90;;;;;;4976433;28;20049;-73
2022/06/03 03:55:58;;;;;;;10.98;6.22;;;9.10;99.90;;;;;;5014417;28;20052;-72
2022/06/03 03:58:38;;;;;;;10.88;6.95;;;9.10;99.90;;;;;;5001328;28;20379;-73
2022/06/03 04:01:23;;;;;;;9.15;6.78;;;9.20;99.90;;;;;;5016199;28;20091;-73
2022/06/03 04:04:06;;;;;;;11.32;6.95;;;9.20;99.90;;;;;;5031927;28;20103;-73
2022/06/03 04:06:49;;;;;;;11.68;6.40;;;9.30;99.90;;;;;;5016145;28;20037;-73
2022/06/03 04:10:10;;;;;;;10.50;6.75;;;9.40;99.90;;;;;;5032547;28;20044;-72
2022/06/03 04:12:59;;;;;;;10.90;6.78;;;9.40;99.90;;;;;;5021711;28;20509;-72
2022/06/03 04:15:59;;;;;;;11.73;7.05;;;9.40;99.90;;;;;;5028610;28;20037;-72
2022/06/03 04:18:55;;;;;;;12.13;7.05;;;9.40;99.90;;;;;;5049057;28;20494;-73
2022/06/03 04:21:43;;;;;;;11.48;7.47;;;9.50;99.90;;;;;;5032341;28;20041;-72
2022/06/03 04:24:20;;;;;;;11.63;7.65;;;9.60;99.90;;;;;;5023663;28;20045;-72
2022/06/03 04:27:27;;;;;;;11.13;7.25;;;9.60;99.90;;;;;;5031228;28;20865;-72
2022/06/03 04:29:59;;;;;;;13.55;8.32;;;9.70;99.90;;;;;;5032441;28;20056;-72
2022/06/03 04:32:43;;;;;;;11.48;7.45;;;9.80;99.90;;;;;;5032317;28;20046;-72
2022/06/03 04:35:30;;;;;;;13.68;7.65;;;9.80;99.90;;;;;;5031354;28;20072;-72
2022/06/03 04:38:17;;;;;;;10.98;7.75;;;9.90;99.90;;;;;;5046294;28;20128;-72
2022/06/03 04:41:33;;;;;;;12.98;8.00;;;9.90;99.90;;;;;;5031217;28;20058;-72
2022/06/03 04:43:59;;;;;;;11.25;6.70;;;10.00;99.90;;;;;;5021623;28;20132;-72
2022/06/03 04:47:13;;;;;;;9.70;6.95;;;10.10;99.90;;;;;;5025016;28;20137;-72
2022/06/03 04:49:57;;;;;;;14.68;7.72;;;10.10;99.90;;;;;;5009573;28;20555;-72
2022/06/03 04:52:38;;;;;;;11.40;7.28;;;10.10;99.90;;;;;;5019175;28;20521;-72
2022/06/03 04:55:47;;;;;;;15.00;7.57;;;10.20;99.90;;;;;;5029835;28;20293;-73
2022/06/03 04:58:36;;;;;;;13.10;7.57;;;10.30;99.90;;;;;;5043347;28;20557;-72
2022/06/03 05:01:40;;;;;;;11.25;7.40;;;10.30;99.90;;;;;;5028191;28;20037;-72
2022/06/03 05:04:40;;;;;;;11.10;6.93;;;10.40;99.90;;;;;;5029789;28;20138;-72
2022/06/03 05:07:11;;;;;;;12.30;7.75;;;10.40;99.90;;;;;;5030160;28;20163;-72
2022/06/03 05:10:13;;;;;;;11.97;7.07;;;10.50;99.90;;;;;;5007168;28;20483;-72
2022/06/03 05:13:11;;;;;;;10.40;6.82;;;10.60;99.90;;;;;;5020351;28;20120;-73
2022/06/03 05:15:49;;;;;;;10.80;7.05;;;10.70;99.90;;;;;;5017722;28;20065;-72
2022/06/03 05:19:03;;;;;;;11.75;7.40;;;10.80;99.90;;;;;;5029281;28;20504;-72
2022/06/03 05:22:07;;;;;;;10.57;7.63;;;10.80;99.90;;;;;;5032372;28;20456;-73
2022/06/03 05:24:47;;;;;;;12.70;7.35;;;10.90;99.90;;;;;;4979435;28;20042;-72
2022/06/03 05:27:34;;;;;;;10.75;6.88;;;11.00;99.90;;;;;;4990940;28;20084;-72
2022/06/03 05:30:31;;;;;;;10.93;6.80;;;11.10;99.90;;;;;;5001268;28;20453;-74
2022/06/03 05:33:35;;;;;;;11.88;7.35;;;11.10;99.90;;;;;;5029981;28;20099;-73
2022/06/03 05:36:52;;;;;;;12.68;6.97;;;11.30;99.90;;;;;;5030212;28;20052;-74
2022/06/03 05:39:26;;;;;;;11.23;6.93;;;11.40;99.90;;;;;;5029961;28;20370;-73
2022/06/03 05:42:29;;;;;;;11.82;7.97;;;11.50;99.90;;;;;;5030865;28;20072;-74
2022/06/03 05:45:04;;;;;;;;;;;11.60;99.90;;;;;;5043890;28;20041;-74
2022/06/03 05:47:48;;;;;;;9.30;6.82;;;11.70;99.90;;;;;;5022360;28;19916;-74
2022/06/03 05:50:23;;;;;;;10.90;7.55;;;11.80;99.90;;;;;;5045209;28;20482;-74
2022/06/03 05:52:57;;;;;;;10.15;6.95;;;11.90;99.90;;;;;;5031485;28;20132;-74
2022/06/03 05:55:46;;;;;;;10.30;7.38;;;12.00;99.90;;;;;;5031612;28;20490;-74
2022/06/03 05:58:27;;;;;;;11.52;6.75;;;12.20;99.90;;;;;;5004593;28;20608;-75
2022/06/03 06:01:16;;;;;;;9.85;7.20;;;12.40;99.90;;;;;;5033523;28;20053;-74
2022/06/03 06:03:52;;;;;;;10.13;6.53;;;12.60;99.90;;;;;;5026367;28;20129;-74
2022/06/03 06:06:54;;;;;;;10.68;6.95;;;12.70;99.90;;;;;;5028699;28;20429;-74
2022/06/03 06:09:56;;;;;;;10.70;6.10;;;12.80;99.90;;;;;;5012384;28;20038;-74
2022/06/03 06:12:30;;;;;;;11.52;6.05;;;13.00;99.90;;;;;;5018781;28;20421;-74
2022/06/03 06:15:33;;;;;;;10.50;6.03;;;13.10;99.90;;;;;;5026629;28;20048;-74
2022/06/03 06:17:59;;;;;;;10.57;5.50;;;13.20;99.90;;;;;;5017654;28;20053;-74
2022/06/03 06:20:51;;;;;;;9.70;5.90;;;13.30;99.90;;;;;;5033430;28;20072;-74
2022/06/03 06:23:39;;;;;;;9.23;5.60;;;13.40;99.90;;;;;;5034315;28;20494;-74
2022/06/03 06:26:28;;;;;;;8.82;5.32;;;13.50;99.90;;;;;;5030680;28;20068;-73
2022/06/03 06:29:16;;;;;;;8.52;5.20;;;13.60;99.90;;;;;;5046774;28;20041;-74
2022/06/03 06:32:27;;;;;;;9.43;4.88;;;13.70;99.90;;;;;;5022520;28;20041;-72
2022/06/03 06:35:11;;;;;;;6.65;3.78;;;13.90;99.90;;;;;;5051095;28;20040;-73
2022/06/03 06:38:12;;;;;;;8.90;4.13;;;14.00;99.90;;;;;;5030864;28;20124;-72
2022/06/03 06:41:05;;;;;;;8.85;4.22;;;14.10;99.90;;;;;;5051919;28;20061;-72
2022/06/03 06:43:33;;;;;;;8.27;3.85;;;14.20;99.90;;;;;;5032888;28;20045;-72
2022/06/03 06:46:11;;;;;;;6.53;4.28;;;14.40;99.90;;;;;;5038485;28;20125;-73
2022/06/03 06:49:14;;;;;;;8.35;3.65;;;14.50;99.90;;;;;;5030414;28;20116;-73
2022/06/03 06:52:07;;;;;;;6.13;3.13;;;14.60;99.90;;;;;;5040139;28;20091;-73
2022/06/03 06:54:59;;;;;;;6.85;3.90;;;14.70;99.90;;;;;;5031685;28;20041;-73
2022/06/03 06:57:44;;;;;;;8.45;3.50;;;14.70;99.90;;;;;;5023261;28;20046;-73
2022/06/03 07:00:19;;;;;;;6.97;3.60;;;14.90;99.90;;;;;;5027445;28;20132;-73
2022/06/03 07:02:51;;;;;;;8.93;3.30;;;15.00;99.90;;;;;;5020385;28;20176;-73
2022/06/03 07:05:25;;;;;;;6.47;3.10;;;15.00;99.90;;;;;;5032476;28;20504;-73
2022/06/03 07:08:15;;;;;;;7.35;3.50;;;15.10;99.90;;;;;;5017032;28;20512;-73
2022/06/03 07:10:47;;;;;;;5.78;3.03;;;15.20;99.90;;;;;;5023157;28;20061;-73
2022/06/03 07:13:34;;;;;;;4.75;2.50;;;15.30;99.90;;;;;;5025168;28;20508;-73
2022/06/03 07:16:10;;;;;;;6.50;2.80;;;15.40;99.90;;;;;;5024959;28;20048;-73
2022/06/03 07:21:58;;;;;;;6.38;2.50;;;15.50;99.90;;;;;;5047688;28;20472;-73
2022/06/03 07:24:40;;;;;;;5.55;2.78;;;15.60;99.90;;;;;;5032772;28;20107;-75
2022/06/03 07:27:13;;;;;;;4.95;2.70;;;15.70;99.90;;;;;;5018342;28;20036;-72
2022/06/03 07:30:10;;;;;;;5.60;3.05;;;15.80;99.90;;;;;;5026395;28;20048;-72
2022/06/03 07:32:45;;;;;;;6.13;2.47;;;15.90;99.90;;;;;;5044207;28;20057;-73
2022/06/03 07:35:18;;;;;;;4.13;2.20;;;16.00;99.90;;;;;;5029159;28;20046;-72
2022/06/03 07:38:01;;;;;;;4.25;2.25;;;16.00;99.90;;;;;;5029873;28;20616;-73
2022/06/03 07:40:41;;;;;;;4.78;2.35;;;16.00;99.90;;;;;;5031810;28;20107;-73
2022/06/03 07:43:12;;;;;;;5.05;2.00;;;15.90;99.90;;;;;;5032361;28;20037;-73
2022/06/03 07:45:56;;;;;;;8.00;2.58;;;16.10;99.90;;;;;;5041608;28;20042;-72
2022/06/03 07:48:24;;;;;;;4.97;2.00;;;16.20;99.90;;;;;;5048623;28;20045;-72
2022/06/03 07:50:58;;;;;;;6.45;2.88;;;16.30;99.90;;;;;;5024621;28;20037;-73
2022/06/03 07:53:35;;;;;;;7.30;2.90;;;16.40;99.90;;;;;;5009736;28;20034;-73
2022/06/03 07:56:01;;;;;;;6.93;2.50;;;16.60;99.90;;;;;;5014082;28;20441;-74
2022/06/03 07:58:32;;;;;;;6.25;2.67;;;16.80;99.90;;;;;;5015790;28;20045;-74
2022/06/03 08:00:57;;;;;;;6.32;2.17;;;16.80;99.90;;;;;;5021569;28;20037;-74
2022/06/03 08:03:26;;;;;;;4.50;2.55;;;16.80;99.90;;;;;;5047915;28;20115;-74
2022/06/03 08:05:59;;;;;;;5.53;2.85;;;16.90;99.90;;;;;;5014781;28;20033;-74
2022/06/03 08:11:33;;;;;;;5.32;2.53;;;17.10;99.90;;;;;;5026021;28;20446;-73
2022/06/03 08:14:01;;;;;;;5.57;2.80;;;17.10;99.90;;;;;;5031742;28;20460;-74
2022/06/03 08:16:34;;;;;;;6.55;2.92;;;17.20;99.90;;;;;;5018370;28;20073;-73
2022/06/03 08:19:26;;;;;;;7.90;2.90;;;17.40;99.90;;;;;;5028384;28;20140;-73
2022/06/03 08:21:56;;;;;;;8.57;3.03;;;17.40;99.90;;;;;;5015075;28;20049;-73
2022/06/03 08:24:25;;;;;;;5.82;2.78;;;17.40;99.90;;;;;;5031166;28;20048;-73
2022/06/03 08:26:55;;;;;;;5.88;3.08;;;17.50;99.90;;;;;;5011939;28;21080;-73
2022/06/03 08:29:33;;;;;;;5.95;2.83;;;17.40;99.90;;;;;;5014955;28;20037;-74
2022/06/03 08:32:00;;;;;;;6.72;3.25;;;17.60;99.90;;;;;;5030582;28;20485;-73
2022/06/03 08:34:43;;;;;;;7.55;2.97;;;17.60;99.90;;;;;;5031095;28;20045;-73
2022/06/03 08:37:14;;;;;;;4.50;2.80;;;17.60;99.90;;;;;;5015196;28;20128;-72
2022/06/03 08:39:40;;;;;;;6.90;3.00;;;17.80;99.90;;;;;;5015158;28;20104;-73
2022/06/03 08:42:30;;;;;;;6.10;3.10;;;17.90;99.90;;;;;;5014856;28;20033;-73
2022/06/03 08:45:02;;;;;;;6.15;2.88;;;17.90;99.90;;;;;;5014330;28;20072;-73
2022/06/03 08:47:38;;;;;;;7.07;2.75;;;17.90;99.90;;;;;;5032030;28;20041;-73
2022/06/03 08:50:10;;;;;;;5.50;3.13;;;18.10;99.90;;;;;;5047905;28;20037;-73
2022/06/03 08:52:54;;;;;;;6.30;3.08;;;18.20;99.90;;;;;;5031205;28;20505;-73
2022/06/03 08:55:41;;;;;;;7.75;3.20;;;18.20;99.90;;;;;;5031869;28;20051;-73
2022/06/03 08:58:36;;;;;;;6.68;3.05;;;18.30;99.90;;;;;;5014201;28;20482;-73
2022/06/03 09:01:27;;;;;;;5.88;3.33;;;18.40;99.90;;;;;;5031169;28;20081;-72
2022/06/03 09:04:14;;;;;;;6.25;3.10;;;18.50;99.90;;;;;;5031118;28;20045;-73
2022/06/03 09:06:58;;;;;;;7.85;3.50;;;18.50;99.90;;;;;;5014582;28;20092;-73
2022/06/03 09:09:47;;;;;;;6.78;3.42;;;18.60;99.90;;;;;;5015551;28;20033;-74
2022/06/03 09:12:28;;;;;;;6.95;3.53;;;18.60;99.90;;;;;;5031476;28;20120;-73
2022/06/03 09:14:56;;;;;;;6.20;3.35;;;18.80;99.90;;;;;;5030910;28;20042;-75
2022/06/03 09:17:42;;;;;;;5.93;3.42;;;18.80;99.90;;;;;;5015393;28;20041;-74
2022/06/03 09:20:20;;;;;;;7.57;3.47;;;19.00;99.90;;;;;;5015200;28;20440;-73
2022/06/03 09:22:47;;;;;;;7.60;3.80;;;19.00;99.90;;;;;;5030641;28;20128;-73
2022/06/03 09:25:16;;;;;;;6.28;3.28;;;19.00;99.90;;;;;;5014404;28;20044;-73
2022/06/03 09:27:43;;;;;;;6.75;3.55;;;19.10;99.90;;;;;;5015244;28;20029;-73
2022/06/03 09:30:12;;;;;;;7.35;3.65;;;19.10;99.80;;;;;;5030129;28;20033;-74
2022/06/03 09:32:47;;;;;;;6.85;2.92;;;19.10;99.90;;;;;;5024038;28;20474;-73
2022/06/03 09:35:20;;;;;;;4.72;2.70;;;19.40;99.90;;;;;;5029963;28;20033;-74
2022/06/03 09:37:50;;;;;;;6.75;3.70;;;19.60;99.90;;;;;;5014038;28;20425;-73
2022/06/03 09:40:23;;;;;;;5.82;2.80;;;19.80;99.90;;;;;;5030983;28;20072;-73
2022/06/03 09:43:14;;;;;;;4.95;3.10;;;19.80;99.90;;;;;;5030317;28;20052;-74
2022/06/03 09:45:41;;;;;;;7.53;3.63;;;19.80;98.80;;;;;;5012470;28;20682;-73
2022/06/03 09:48:09;;;;;;;5.07;2.60;;;19.90;98.40;;;;;;5014769;28;20061;-74
2022/06/03 09:50:36;;;;;;;5.95;3.00;;;20.00;99.90;;;;;;5015070;28;20057;-74
2022/06/03 09:53:05;;;;;;;5.30;2.65;;;20.00;97.20;;;;;;5020608;28;20034;-73
2022/06/03 09:55:38;;;;;;;4.85;2.63;;;20.00;95.90;;;;;;5034248;28;20520;-73
2022/06/03 09:58:10;;;;;;;5.50;2.53;;;20.00;94.40;;;;;;5032140;28;20038;-73
2022/06/03 10:00:45;;;;;;;4.90;2.80;;;20.20;99.90;;;;;;5033816;28;20072;-73
2022/06/03 10:03:12;;;;;;;7.22;2.90;;;20.40;97.20;;;;;;5033462;28;20038;-73
2022/06/03 10:05:38;;;;;;;5.97;2.78;;;20.40;98.80;;;;;;5033818;28;20051;-73
2022/06/03 10:08:07;;;;;;;5.82;2.53;;;20.40;99.80;;;;;;5032339;28;20034;-73
2022/06/03 10:13:18;;;;;;;5.38;2.75;;;20.50;95.80;;;;;;5049516;28;20041;-73
2022/06/03 10:16:00;;;;;;;4.63;2.30;;;20.40;96.00;;;;;;5032116;28;20482;-75
2022/06/03 10:18:44;;;;;;;4.85;2.60;;;20.50;93.80;;;;;;5034303;28;20061;-73
2022/06/03 10:21:12;;;;;;;5.70;2.42;;;20.40;96.40;;;;;;5016118;28;20163;-73
2022/06/03 10:23:48;;;;;;;3.72;2.05;;;20.60;96.80;;;;;;5032388;28;20041;-73
2022/06/03 10:26:40;;;;;;;4.10;2.00;;;20.70;95.90;;;;;;5032295;28;20045;-73
2022/06/03 10:29:10;;;;;;;4.57;2.30;;;20.90;94.00;;;;;;5032877;28;20038;-73
2022/06/03 10:31:36;;;;;;;5.68;2.20;;;20.70;96.70;;;;;;5016154;28;20083;-73
2022/06/03 10:34:27;;;;;;;4.65;2.08;;;20.80;98.00;;;;;;5017634;28;20044;-73
2022/06/03 10:36:55;;;;;;;5.30;2.30;;;21.00;97.80;;;;;;5023249;28;20073;-73
2022/06/03 10:39:23;;;;;;;3.47;2.00;;;21.10;95.50;;;;;;5031620;28;20087;-73
2022/06/03 10:41:55;;;;;;;5.32;2.47;;;21.20;95.60;;;;;;5012175;28;20498;-73
2022/06/03 10:44:23;;;;;;;3.85;2.00;;;20.90;91.00;;;;;;5026066;28;20046;-73
2022/06/03 10:46:52;;;;;;;5.45;2.17;;;20.70;88.30;;;;;;5033154;28;20443;-73
2022/06/03 10:49:18;;;;;;;4.25;1.92;;;20.70;95.40;;;;;;5033007;28;20072;-73
2022/06/03 11:02:46;;;;;;;3.75;2.03;;;20.80;97.40;;;;;;5032419;28;20490;-74
2022/06/03 11:05:22;;;;;;;3.85;1.92;;;21.00;95.60;;;;;;5033839;28;20033;-73
2022/06/03 11:08:02;;;;;;;7.00;2.17;;;21.20;92.90;;;;;;5047944;28;20492;-73
2022/06/03 11:10:37;;;;;;;3.58;1.88;;;21.20;95.10;;;;;;5016366;28;20053;-74
2022/06/03 11:13:06;;;;;;;4.40;2.15;;;21.20;95.00;;;;;;5032896;28;20135;-73
2022/06/03 11:15:39;;;;;;;3.33;2.03;;;21.10;91.30;;;;;;5031713;28;20051;-73
2022/06/03 11:18:16;;;;;;;4.13;1.80;;;21.00;94.60;;;;;;5015808;28;20328;-73
2022/06/03 11:20:44;;;;;;;4.38;2.50;;;21.00;93.90;;;;;;5013019;28;20171;-73
2022/06/03 11:23:12;;;;;;;4.60;1.95;;;20.90;92.00;;;;;;5014075;28;20045;-73
2022/06/03 11:25:41;;;;;;;3.65;2.03;;;21.00;94.50;;;;;;5016187;28;20394;-74
2022/06/03 11:28:23;;;;;;;4.82;2.20;;;21.10;90.30;;;;;;5032348;28;20037;-73
2022/06/03 11:30:59;;;;;;;3.97;2.22;;;21.10;94.70;;;;;;5031498;28;20042;-74
2022/06/03 11:33:34;;;;;;;4.57;2.10;;;20.80;92.80;;;;;;5013084;28;20045;-74
2022/06/03 11:36:05;;;;;;;7.60;2.10;;;20.90;96.20;;;;;;5030313;28;20444;-74
2022/06/03 11:39:00;;;;;;;4.75;2.30;;;21.00;97.30;;;;;;5030330;28;20045;-74
2022/06/03 11:41:37;;;;;;;4.90;1.90;;;20.80;91.80;;;;;;5011792;28;20060;-73
2022/06/03 11:44:18;;;;;;;6.45;2.08;;;20.80;95.70;;;;;;5038015;28;20042;-73
2022/06/03 11:46:54;;;;;;;4.47;2.10;;;20.50;90.10;;;;;;5029906;28;20041;-73
2022/06/03 11:49:22;;;;;;;5.88;2.05;;;20.30;92.30;;;;;;5015826;28;20402;-73
2022/06/03 11:51:49;;;;;;;4.60;2.33;;;20.40;95.20;;;;;;5030904;28;20454;-72
2022/06/03 11:54:17;;;;;;;4.45;2.28;;;20.50;97.40;;;;;;5032219;28;20604;-72
2022/06/03 11:56:45;;;;;;;5.25;2.30;;;20.70;96.70;;;;;;5031006;28;20524;-72
2022/06/03 11:59:28;;;;;;;4.85;2.47;;;20.80;94.60;;;;;;5015573;28;20037;-73
2022/06/03 12:02:10;;;;;;;5.50;2.30;;;20.80;94.80;;;;;;5043356;28;20041;-73
2022/06/03 12:04:45;;;;;;;4.93;2.38;;;20.90;95.90;;;;;;5048292;28;20387;-72
2022/06/03 12:07:45;;;;;;;4.68;2.30;;;20.90;93.60;;;;;;5030687;28;20042;-73
2022/06/03 12:10:30;;;;;;;5.55;2.42;;;20.90;94.30;;;;;;5019234;28;20041;-73
2022/06/03 12:13:28;;;;;;;5.40;2.50;;;20.90;90.90;;;;;;5030307;28;20041;-73
2022/06/03 12:15:53;;;;;;;4.25;2.10;;;21.00;96.10;;;;;;5004964;28;20505;-73
2022/06/03 12:18:31;;;;;;;6.13;2.67;;;21.00;94.80;;;;;;5038508;28;20053;-73
2022/06/03 12:20:59;;;;;;;5.13;1.98;;;20.90;84.00;;;;;;5030620;28;20042;-73
2022/06/03 12:23:25;;;;;;;4.57;1.80;;;20.90;92.70;;;;;;5014424;28;20569;-73
2022/06/03 12:25:53;;;;;;;4.47;1.90;;;20.90;94.40;;;;;;5015555;28;20046;-73
2022/06/03 12:28:19;;;;;;;4.30;1.75;;;21.00;93.50;;;;;;5014491;28;20402;-73
2022/06/03 12:31:17;;;;;;;4.47;2.10;;;21.10;93.30;;;;;;5014049;28;20041;-74
2022/06/03 12:34:01;;;;;;;4.07;2.00;;;21.10;91.00;;;;;;4987996;28;20568;-74
2022/06/03 12:36:47;;;;;;;3.15;1.85;;;20.90;79.10;;;;;;5023516;28;20052;-74
2022/06/03 12:39:29;;;;;;;4.10;1.95;;;20.80;93.00;;;;;;5046664;28;20045;-74
2022/06/03 12:41:57;;;;;;;3.15;1.73;;;20.80;94.20;;;;;;5030431;28;20172;-74
2022/06/03 12:45:02;;;;;;;4.32;1.70;;;20.80;93.80;;;;;;5027150;28;20667;-74
2022/06/03 12:47:35;;;;;;;5.57;1.90;;;21.00;90.20;;;;;;5046333;28;20429;-74
2022/06/03 12:50:04;;;;;;;3.67;1.50;;;20.90;92.60;;;;;;5030425;28;20042;-74
2022/06/03 12:52:30;;;;;;;4.65;2.03;;;20.90;78.30;;;;;;5030674;28;20041;-74
2022/06/03 12:55:07;;;;;;;3.75;1.90;;;20.80;85.50;;;;;;5014038;28;20053;-74
2022/06/03 12:57:42;;;;;;;5.13;1.60;;;20.90;92.60;;;;;;5029180;28;20084;-75
2022/06/03 13:00:12;;;;;;;2.97;1.77;;;21.00;93.20;;;;;;5013499;28;20052;-75
2022/06/03 13:02:50;;;;;;;3.67;1.70;;;20.90;88.10;;;;;;5028615;28;20087;-73
2022/06/03 13:05:41;;;;;;;5.10;1.73;;;20.90;94.50;;;;;;5028300;28;20052;-73
2022/06/03 13:08:25;;;;;;;4.82;1.90;;;20.80;92.20;;;;;;5014938;28;20042;-73
2022/06/03 13:11:03;;;;;;;4.60;2.33;;;20.90;92.40;;;;;;5030647;28;20043;-74
2022/06/03 13:13:34;;;;;;;4.25;2.00;;;20.70;95.30;;;;;;5024408;28;20601;-73
2022/06/03 13:16:19;;;;;;;4.25;1.90;;;20.50;94.20;;;;;;5022814;28;20110;-74
2022/06/03 13:18:48;;;;;;;3.47;1.60;;;20.50;93.40;;;;;;5034068;28;20045;-74
2022/06/03 13:21:16;;;;;;;5.55;2.00;;;20.60;91.40;;;;;;5033912;28;20049;-74
2022/06/03 13:23:47;;;;;;;4.43;1.88;;;20.60;89.30;;;;;;5017008;28;20119;-75
2022/06/03 13:26:22;;;;;;;3.72;2.00;;;20.70;96.50;;;;;;5032456;28;20033;-75
2022/06/03 13:29:01;;;;;;;2.67;1.73;;;20.60;94.00;;;;;;5018836;28;20560;-74
2022/06/03 13:31:39;;;;;;;3.75;1.70;;;20.60;90.80;;;;;;5034381;28;20037;-74
2022/06/03 13:34:08;;;;;;;5.82;1.60;;;20.40;91.30;;;;;;5033504;28;20103;-76
2022/06/03 13:36:52;;;;;;;3.30;1.80;;;20.40;97.60;;;;;;5032661;28;20513;-75
2022/06/03 13:39:23;;;;;;;3.22;1.65;;;20.50;93.00;;;;;;5015515;28;20088;-74
2022/06/03 13:45:10;;;;;;;4.97;1.80;;;20.40;93.90;;;;;;5049661;28;20073;-76
2022/06/03 13:47:57;;;;;;;4.53;1.65;;;20.40;94.00;;;;;;5028252;28;20451;-75
2022/06/03 13:50:26;;;;;;;3.83;1.70;;;20.50;94.30;;;;;;5033798;28;20359;-75
2022/06/03 13:52:55;;;;;;;2.75;1.48;;;20.50;94.80;;;;;;5033653;28;20049;-74
2022/06/03 13:55:26;;;;;;;4.88;1.98;;;20.60;95.50;;;;;;5033085;28;20048;-75
2022/06/03 13:58:14;;;;;;;3.63;1.73;;;20.60;93.30;;;;;;5033751;28;20486;-75
2022/06/03 14:01:07;;;;;;;4.28;1.70;;;20.60;89.00;;;;;;5050482;28;20497;-75
2022/06/03 14:03:40;;;;;;;5.07;2.03;;;20.40;91.60;;;;;;5033012;28;20390;-75
2022/06/03 14:06:21;;;;;;;4.55;1.50;;;20.50;93.30;;;;;;5017407;28;20041;-79
2022/06/03 14:08:56;;;;;;;4.43;1.93;;;20.50;94.40;;;;;;5034460;28;20037;-74
2022/06/03 14:11:42;;;;;;;3.80;1.58;;;20.60;90.90;;;;;;5015455;28;20038;-74
2022/06/03 14:14:11;;;;;;;3.42;1.60;;;20.50;93.70;;;;;;5017118;28;20079;-75
2022/06/03 14:16:40;;;;;;;3.13;1.67;;;20.50;93.40;;;;;;5033351;28;20068;-73
2022/06/03 14:19:11;;;;;;;2.45;1.40;;;20.60;85.60;;;;;;5033543;28;20048;-72
2022/06/03 14:21:37;;;;;;;2.13;1.23;;;20.60;85.20;;;;;;5016497;28;20041;-73
2022/06/03 14:24:31;;;;;;;2.92;1.63;;;20.50;90.50;;;;;;5049558;28;20456;-72
2022/06/03 14:27:12;;;;;;;3.53;1.42;;;20.50;92.30;;;;;;5013873;28;20053;-73